createdAt,value
2018-08-24T00:00:19.611Z,41.47
2018-08-24T00:03:18.947Z,41.24
2018-08-24T00:06:16.937Z,40.99
2018-08-24T00:09:14.902Z,40.98
2018-08-24T00:12:13.215Z,40.91
2018-08-24T00:15:11.252Z,41.02
2018-08-24T00:18:09.292Z,40.96
2018-08-24T00:21:08.526Z,40.90
2018-08-24T00:24:06.333Z,41.35
2018-08-24T00:27:04.647Z,40.90
2018-08-24T00:30:02.918Z,41.49
2018-08-24T00:33:01.183Z,41.25
2018-08-24T00:35:59.267Z,40.82
2018-08-24T00:38:57.464Z,41.76
2018-08-24T00:41:55.434Z,40.88
2018-08-24T00:44:53.753Z,41.55
2018-08-24T00:47:53.210Z,41.01
2018-08-24T00:50:51.386Z,41.46
2018-08-24T00:53:50.560Z,41.11
2018-08-24T00:56:48.718Z,41.58
2018-08-24T00:59:46.974Z,41.36
2018-08-24T01:02:45.054Z,41.14
2018-08-24T01:05:43.007Z,41.59
2018-08-24T01:08:40.854Z,41.58
2018-08-24T01:11:44.752Z,41.09
2018-08-24T01:14:43.261Z,41.62
2018-08-24T01:17:47.207Z,41.09
2018-08-24T01:20:45.359Z,41.72
2018-08-24T01:23:43.719Z,41.72
2018-08-24T01:26:41.838Z,41.70
2018-08-24T01:29:42.011Z,41.82
2018-08-24T01:32:40.487Z,41.66
2018-08-24T01:35:39.118Z,41.22
2018-08-24T01:38:37.253Z,41.19
2018-08-24T01:41:35.226Z,41.20
2018-08-24T01:44:34.300Z,41.27
2018-08-24T01:47:32.342Z,41.82
2018-08-24T01:50:31.324Z,41.71
2018-08-24T01:53:29.294Z,41.85
2018-08-24T01:56:27.574Z,41.79
2018-08-24T01:59:25.785Z,41.73
2018-08-24T02:02:24.023Z,41.85
2018-08-24T02:05:21.838Z,41.32
2018-08-24T02:08:20.191Z,41.83
2018-08-24T02:11:24.117Z,41.08
2018-08-24T02:14:28.098Z,41.72
2018-08-24T02:17:31.782Z,41.70
2018-08-24T02:20:35.894Z,41.85
2018-08-24T02:23:33.944Z,41.45
2018-08-24T02:26:32.122Z,41.98
2018-08-24T02:29:30.287Z,41.21
2018-08-24T02:32:28.656Z,41.73
2018-08-24T02:35:27.666Z,42.08
2018-08-24T02:38:25.797Z,41.65
2018-08-24T02:41:23.852Z,41.34
2018-08-24T02:44:22.167Z,41.83
2018-08-24T02:47:21.907Z,41.22
2018-08-24T02:50:20.150Z,41.27
2018-08-24T02:53:18.252Z,41.93
2018-08-24T02:56:16.678Z,41.65
2018-08-24T02:59:15.299Z,41.78
2018-08-24T03:02:13.677Z,42.00
2018-08-24T03:05:11.817Z,41.44
2018-08-24T03:08:10.335Z,41.79
2018-08-24T03:11:08.059Z,41.78
2018-08-24T03:14:06.451Z,41.78
2018-08-24T03:18:08.188Z,41.07
2018-08-24T03:21:06.270Z,41.09
2018-08-24T03:24:04.189Z,41.65
2018-08-24T03:27:02.279Z,41.91
2018-08-24T03:30:00.422Z,41.29
2018-08-24T03:32:58.425Z,41.43
2018-08-24T03:35:56.349Z,41.76
2018-08-24T03:38:54.468Z,41.79
2018-08-24T03:41:52.478Z,41.18
2018-08-24T03:44:50.496Z,41.84
2018-08-24T03:47:48.571Z,41.20
2018-08-24T03:50:46.820Z,41.24
2018-08-24T03:53:45.597Z,41.24
2018-08-24T03:56:43.879Z,41.69
2018-08-24T03:59:41.769Z,41.66
2018-08-24T04:02:40.123Z,41.62
2018-08-24T04:05:37.955Z,41.23
2018-08-24T04:08:36.120Z,41.51
2018-08-24T04:11:33.969Z,41.04
2018-08-24T04:14:32.149Z,41.26
2018-08-24T04:17:36.292Z,41.51
2018-08-24T04:20:34.309Z,41.58
2018-08-24T04:23:32.252Z,41.65
2018-08-24T04:26:30.273Z,40.95
2018-08-24T04:29:29.373Z,41.41
2018-08-24T04:32:27.274Z,41.18
2018-08-24T04:35:25.277Z,41.04
2018-08-24T04:38:23.286Z,41.14
2018-08-24T04:41:21.285Z,41.08
2018-08-24T04:44:20.601Z,41.47
2018-08-24T04:47:19.341Z,41.21
2018-08-24T04:50:17.188Z,41.60
2018-08-24T04:53:15.131Z,41.50
2018-08-24T04:56:13.553Z,41.74
2018-08-24T04:59:11.277Z,41.69
2018-08-24T05:02:10.570Z,41.65
2018-08-24T05:05:08.449Z,41.13
2018-08-24T05:08:06.446Z,40.93
2018-08-24T05:11:04.447Z,41.09
2018-08-24T05:14:02.575Z,41.51
2018-08-24T05:17:01.530Z,41.03
2018-08-24T05:19:59.513Z,41.01
2018-08-24T05:22:58.460Z,41.48
2018-08-24T05:25:56.733Z,40.96
2018-08-24T05:28:54.815Z,41.56
2018-08-24T05:31:54.205Z,40.95
2018-08-24T05:34:52.343Z,40.96
2018-08-24T05:37:50.861Z,41.37
2018-08-24T05:40:48.716Z,40.96
2018-08-24T05:43:47.828Z,41.28
2018-08-24T05:46:45.647Z,40.85
2018-08-24T05:49:44.173Z,41.03
2018-08-24T05:52:42.789Z,40.88
2018-08-24T05:55:41.239Z,40.76
2018-08-24T05:58:39.266Z,40.72
2018-08-24T06:01:37.847Z,40.69
2018-08-24T06:04:35.873Z,40.84
2018-08-24T06:07:34.881Z,41.32
2018-08-24T06:10:33.683Z,41.61
2018-08-24T06:13:31.977Z,41.84
2018-08-24T06:16:30.026Z,41.33
2018-08-24T06:19:29.127Z,41.39
2018-08-24T06:22:27.218Z,41.99
2018-08-24T06:25:25.303Z,42.71
2018-08-24T06:28:23.347Z,42.52
2018-08-24T06:31:21.374Z,43.27
2018-08-24T06:34:19.369Z,43.20
2018-08-24T06:37:17.385Z,43.51
2018-08-24T06:40:15.633Z,43.65
2018-08-24T06:43:14.919Z,43.78
2018-08-24T06:46:12.607Z,43.42
2018-08-24T06:49:11.641Z,43.49
2018-08-24T06:52:09.854Z,43.37
2018-08-24T06:55:08.650Z,43.82
2018-08-24T06:58:07.070Z,43.98
2018-08-24T07:01:05.547Z,43.61
2018-08-24T07:04:03.766Z,43.64
2018-08-24T07:07:02.437Z,44.19
2018-08-24T07:10:01.495Z,43.76
2018-08-24T07:13:00.646Z,43.68
2018-08-24T07:15:58.461Z,43.30
2018-08-24T07:18:56.668Z,42.85
2018-08-24T07:21:54.439Z,42.71
2018-08-24T07:24:52.767Z,43.51
2018-08-24T07:27:50.565Z,42.66
2018-08-24T07:30:48.757Z,42.63
2018-08-24T07:33:47.029Z,42.81
2018-08-24T07:36:45.146Z,42.97
2018-08-24T07:39:43.475Z,43.12
2018-08-24T07:42:41.554Z,42.81
2018-08-24T07:45:39.501Z,42.99
2018-08-24T07:48:37.730Z,42.37
2018-08-24T07:51:35.883Z,42.27
2018-08-24T07:54:34.733Z,42.64
2018-08-24T07:57:33.062Z,42.37
2018-08-24T08:00:31.412Z,42.59
2018-08-24T08:03:29.657Z,41.94
2018-08-24T08:06:28.232Z,42.20
2018-08-24T08:09:26.792Z,42.49
2018-08-24T08:12:25.417Z,42.50
2018-08-24T08:15:23.779Z,42.39
2018-08-24T08:18:22.599Z,42.43
2018-08-24T08:21:21.656Z,41.81
2018-08-24T08:24:19.737Z,41.73
2018-08-24T08:27:17.835Z,42.36
2018-08-24T08:30:15.846Z,42.30
2018-08-24T08:33:13.651Z,41.78
2018-08-24T08:36:11.921Z,41.67
2018-08-24T08:39:11.593Z,41.26
2018-08-24T08:42:09.485Z,41.63
2018-08-24T08:45:08.321Z,41.98
2018-08-24T08:48:06.581Z,41.53
2018-08-24T08:51:04.390Z,41.55
2018-08-24T08:54:03.471Z,41.56
2018-08-24T08:57:01.461Z,42.08
2018-08-24T08:59:59.834Z,41.98
2018-08-24T09:02:57.697Z,41.36
2018-08-24T09:05:55.949Z,41.82
2018-08-24T09:08:53.893Z,41.99
2018-08-24T09:11:51.766Z,41.31
2018-08-24T09:14:50.984Z,41.89
2018-08-24T09:17:55.517Z,40.96
2018-08-24T09:21:00.083Z,41.25
2018-08-24T09:24:04.993Z,42.10
2018-08-24T09:27:09.263Z,41.82
2018-08-24T09:30:10.514Z,41.04
2018-08-24T09:33:08.642Z,41.35
2018-08-24T09:36:12.150Z,41.54
2018-08-24T09:39:10.237Z,41.15
2018-08-24T09:42:09.664Z,41.22
2018-08-24T09:45:07.652Z,41.77
2018-08-24T09:48:11.820Z,41.97
2018-08-24T09:51:15.978Z,42.00
2018-08-24T09:54:16.494Z,41.36
2018-08-24T09:57:15.234Z,41.82
2018-08-24T10:00:13.514Z,41.83
2018-08-24T10:03:17.726Z,41.83
2018-08-24T10:06:21.978Z,41.98
2018-08-24T10:09:22.863Z,41.15
2018-08-24T10:12:21.056Z,41.31
2018-08-24T10:15:19.937Z,41.89
2018-08-24T10:18:18.291Z,41.67
2018-08-24T10:21:17.113Z,41.17
2018-08-24T10:24:15.717Z,41.28
2018-08-24T10:27:13.600Z,41.29
2018-08-24T10:30:12.397Z,41.90
2018-08-24T10:33:10.973Z,41.58
2018-08-24T10:36:09.350Z,41.86
2018-08-24T10:39:08.687Z,41.91
2018-08-24T10:42:07.138Z,42.03
2018-08-24T10:45:05.594Z,42.04
2018-08-24T10:48:03.983Z,41.82
2018-08-24T10:51:02.604Z,41.85
2018-08-24T10:54:00.527Z,41.23
2018-08-24T10:56:58.690Z,41.50
2018-08-24T10:59:56.743Z,41.81
2018-08-24T11:02:54.815Z,42.38
2018-08-24T11:05:53.251Z,41.32
2018-08-24T11:08:51.263Z,41.26
2018-08-24T11:11:49.827Z,41.80
2018-08-24T11:14:47.554Z,41.83
2018-08-24T11:17:51.840Z,41.41
2018-08-24T11:20:49.903Z,41.49
2018-08-24T11:23:48.133Z,41.87
2018-08-24T11:26:47.249Z,41.67
2018-08-24T11:29:45.475Z,42.03
2018-08-24T11:32:43.473Z,42.30
2018-08-24T11:35:41.635Z,41.42
2018-08-24T11:38:41.112Z,41.42
2018-08-24T11:41:39.693Z,42.02
2018-08-24T11:44:38.934Z,41.11
2018-08-24T11:47:37.431Z,41.73
2018-08-24T11:50:35.894Z,42.27
2018-08-24T11:53:34.720Z,41.30
2018-08-24T11:56:32.844Z,42.15
2018-08-24T11:59:31.162Z,41.83
2018-08-24T12:02:29.529Z,42.23
2018-08-24T12:05:27.741Z,42.25
2018-08-24T12:08:25.796Z,41.36
2018-08-24T12:11:23.890Z,42.10
2018-08-24T12:14:22.249Z,42.17
2018-08-24T12:17:25.550Z,42.30
2018-08-24T12:20:23.617Z,41.80
2018-08-24T12:23:21.762Z,41.76
2018-08-24T12:26:19.673Z,42.25
2018-08-24T12:29:18.122Z,42.43
2018-08-24T12:32:16.886Z,41.69
2018-08-24T12:35:15.057Z,41.83
2018-08-24T12:38:13.023Z,42.60
2018-08-24T12:41:11.416Z,42.46
2018-08-24T12:44:09.258Z,42.33
2018-08-24T12:47:07.101Z,42.33
2018-08-24T12:50:05.741Z,42.39
2018-08-24T12:53:05.460Z,42.55
2018-08-24T12:56:03.926Z,42.38
2018-08-24T12:59:02.318Z,41.81
2018-08-24T13:02:00.884Z,42.19
2018-08-24T13:05:00.566Z,42.10
2018-08-24T13:07:58.447Z,41.86
2018-08-24T13:10:56.732Z,42.68
2018-08-24T13:13:54.845Z,42.21
2018-08-24T13:16:53.887Z,42.50
2018-08-24T13:19:51.976Z,42.50
2018-08-24T13:22:50.053Z,42.21
2018-08-24T13:25:48.078Z,41.85
2018-08-24T13:28:46.119Z,41.71
2018-08-24T13:31:44.296Z,42.27
2018-08-24T13:34:43.618Z,42.25
2018-08-24T13:37:41.806Z,41.84
2018-08-24T13:40:40.042Z,42.23
2018-08-24T13:43:37.841Z,42.56
2018-08-24T13:46:35.913Z,42.92
2018-08-24T13:49:34.158Z,42.02
2018-08-24T13:52:33.355Z,42.20
2018-08-24T13:55:32.085Z,42.38
2018-08-24T13:58:32.120Z,42.10
2018-08-24T14:01:30.509Z,42.38
2018-08-24T14:04:29.402Z,41.89
2018-08-24T14:07:27.947Z,41.67
2018-08-24T14:10:27.553Z,42.67
2018-08-24T14:13:26.039Z,42.23
2018-08-24T14:16:24.491Z,42.22
2018-08-24T14:19:22.637Z,42.06
2018-08-24T14:22:20.894Z,42.04
2018-08-24T14:25:18.705Z,42.54
2018-08-24T14:28:19.332Z,42.04
2018-08-24T14:31:17.029Z,42.38
2018-08-24T14:34:15.045Z,41.88
2018-08-24T14:37:13.755Z,42.72
2018-08-24T14:40:13.093Z,42.30
2018-08-24T14:43:11.114Z,41.96
2018-08-24T14:46:09.512Z,42.72
2018-08-24T14:49:07.528Z,41.98
2018-08-24T14:52:06.765Z,42.09
2018-08-24T14:55:04.484Z,42.09
2018-08-24T14:58:02.585Z,42.50
2018-08-24T15:01:00.524Z,42.00
2018-08-24T15:03:58.870Z,41.98
2018-08-24T15:06:56.651Z,42.77
2018-08-24T15:09:54.957Z,42.06
2018-08-24T15:12:52.933Z,42.17
2018-08-24T15:15:51.327Z,42.90
2018-08-24T15:18:50.135Z,42.12
2018-08-24T15:21:49.840Z,42.93
2018-08-24T15:24:49.172Z,42.15
2018-08-24T15:27:47.871Z,42.26
2018-08-24T15:30:46.012Z,42.50
2018-08-24T15:33:44.276Z,42.19
2018-08-24T15:36:42.470Z,42.93
2018-08-24T15:39:40.837Z,42.29
2018-08-24T15:42:40.544Z,42.32
2018-08-24T15:45:38.700Z,42.14
2018-08-24T15:48:36.588Z,42.76
2018-08-24T15:51:34.851Z,42.39
2018-08-24T15:54:34.110Z,42.34
2018-08-24T15:57:32.303Z,43.01
2018-08-24T16:00:30.159Z,42.52
2018-08-24T16:03:28.485Z,42.36
2018-08-24T16:06:26.170Z,42.28
2018-08-24T16:09:24.305Z,42.66
2018-08-24T16:12:23.403Z,43.19
2018-08-24T16:15:22.667Z,42.80
2018-08-24T16:18:26.712Z,43.37
2018-08-24T16:21:24.925Z,43.58
2018-08-24T16:24:23.308Z,43.96
2018-08-24T16:27:26.749Z,44.55
2018-08-24T16:30:24.697Z,44.82
2018-08-24T16:33:22.854Z,44.16
2018-08-24T16:36:22.941Z,44.26
2018-08-24T16:39:21.921Z,45.18
2018-08-24T16:42:21.209Z,44.43
2018-08-24T16:45:19.472Z,45.01
2018-08-24T16:48:18.139Z,45.52
2018-08-24T16:51:17.379Z,44.96
2018-08-24T16:54:15.439Z,44.74
2018-08-24T16:57:14.629Z,45.48
2018-08-24T17:00:17.883Z,45.09
2018-08-24T17:03:18.255Z,45.38
2018-08-24T17:06:17.100Z,45.36
2018-08-24T17:09:15.320Z,44.67
2018-08-24T17:12:14.173Z,45.33
2018-08-24T17:15:12.432Z,44.41
2018-08-24T17:18:10.637Z,45.10
2018-08-24T17:21:09.575Z,45.21
2018-08-24T17:24:08.411Z,45.13
2018-08-24T17:27:06.426Z,44.74
2018-08-24T17:30:04.356Z,45.03
2018-08-24T17:33:03.556Z,45.03
2018-08-24T17:36:02.482Z,44.85
2018-08-24T17:39:00.974Z,44.93
2018-08-24T17:41:59.526Z,45.07
2018-08-24T17:44:57.992Z,44.76
2018-08-24T17:47:56.472Z,44.76
2018-08-24T17:50:54.853Z,44.17
2018-08-24T17:53:52.692Z,44.93
2018-08-24T17:56:52.930Z,44.93
2018-08-24T17:59:50.864Z,44.28
2018-08-24T18:02:48.953Z,44.53
2018-08-24T18:05:48.277Z,44.77
2018-08-24T18:08:46.485Z,44.74
2018-08-24T18:11:45.018Z,44.26
2018-08-24T18:14:43.391Z,44.80
2018-08-24T18:17:42.578Z,44.43
2018-08-24T18:20:40.610Z,44.80
2018-08-24T18:23:38.624Z,44.50
2018-08-24T18:26:36.786Z,44.85
2018-08-24T18:29:34.774Z,44.58
2018-08-24T18:32:33.390Z,45.30
2018-08-24T18:35:31.268Z,45.45
2018-08-24T18:38:31.333Z,44.87
2018-08-24T18:41:29.353Z,45.04
2018-08-24T18:44:28.846Z,45.02
2018-08-24T18:47:26.868Z,45.00
2018-08-24T18:50:25.081Z,44.88
2018-08-24T18:53:22.786Z,44.70
2018-08-24T18:56:21.245Z,45.22
2018-08-24T18:59:19.233Z,44.79
2018-08-24T19:02:17.530Z,44.72
2018-08-24T19:05:15.569Z,45.04
2018-08-24T19:08:16.605Z,45.01
2018-08-24T19:11:20.570Z,44.95
2018-08-24T19:14:19.739Z,44.92
2018-08-24T19:17:23.885Z,44.89
2018-08-24T19:20:27.914Z,44.39
2018-08-24T19:23:26.243Z,44.45
2018-08-24T19:26:24.780Z,44.70
2018-08-24T19:29:28.573Z,44.69
2018-08-24T19:32:26.694Z,44.96
2018-08-24T19:35:24.912Z,44.71
2018-08-24T19:38:22.990Z,44.53
2018-08-24T19:41:27.189Z,44.38
2018-08-24T19:44:25.872Z,43.83
2018-08-24T19:48:28.908Z,44.22
2018-08-24T19:51:32.083Z,43.94
2018-08-24T19:54:31.006Z,43.95
2018-08-24T19:57:35.506Z,44.20
2018-08-24T20:00:33.672Z,43.92
2018-08-24T20:03:32.097Z,44.22
2018-08-24T20:06:36.308Z,43.58
2018-08-24T20:09:41.215Z,43.76
2018-08-24T20:12:39.179Z,43.90
2018-08-24T20:15:43.253Z,44.21
2018-08-24T20:18:42.604Z,44.04
2018-08-24T20:21:40.738Z,43.58
2018-08-24T20:24:47.939Z,44.38
2018-08-24T20:27:46.274Z,44.26
2018-08-24T20:30:44.159Z,43.96
2018-08-24T20:33:42.212Z,43.42
2018-08-24T20:36:40.264Z,43.40
2018-08-24T20:39:38.691Z,43.95
2018-08-24T20:42:37.001Z,43.95
2018-08-24T20:45:35.245Z,43.59
2018-08-24T20:48:33.483Z,43.45
2018-08-24T20:51:32.004Z,43.26
2018-08-24T20:54:30.015Z,43.44
2018-08-24T20:57:28.586Z,43.91
2018-08-24T21:00:27.338Z,43.22
2018-08-24T21:03:25.343Z,43.72
2018-08-24T21:06:23.120Z,43.85
2018-08-24T21:09:22.342Z,43.39
2018-08-24T21:12:20.802Z,42.82
2018-08-24T21:15:19.176Z,43.33
2018-08-24T21:18:17.967Z,43.34
2018-08-24T21:21:15.948Z,43.33
2018-08-24T21:24:15.002Z,43.26
2018-08-24T21:27:13.635Z,43.25
2018-08-24T21:30:11.617Z,43.26
2018-08-24T21:33:09.842Z,43.14
2018-08-24T21:36:07.861Z,43.74
2018-08-24T21:39:06.318Z,43.64
2018-08-24T21:42:04.551Z,43.23
2018-08-24T21:45:02.598Z,43.26
2018-08-24T21:48:00.533Z,43.30
2018-08-24T21:50:58.875Z,43.80
2018-08-24T21:53:56.754Z,43.76
2018-08-24T21:56:54.927Z,43.26
2018-08-24T21:59:52.912Z,43.11
2018-08-24T22:02:52.127Z,43.25
2018-08-24T22:05:51.112Z,43.38
2018-08-24T22:08:49.419Z,44.02
2018-08-24T22:11:47.761Z,43.37
2018-08-24T22:14:45.937Z,43.29
2018-08-24T22:17:44.117Z,43.72
2018-08-24T22:20:43.116Z,43.24
2018-08-24T22:23:41.780Z,43.30
2018-08-24T22:26:39.978Z,43.60
2018-08-24T22:29:38.060Z,43.71
2018-08-24T22:32:36.434Z,43.16
2018-08-24T22:35:34.127Z,43.81
2018-08-24T22:38:32.646Z,43.68
2018-08-24T22:41:31.743Z,43.18
2018-08-24T22:44:31.150Z,43.66
2018-08-24T22:47:29.282Z,43.85
2018-08-24T22:50:27.601Z,43.01
2018-08-24T22:53:25.492Z,43.39
2018-08-24T22:56:23.896Z,43.75
2018-08-24T22:59:22.727Z,43.94
2018-08-24T23:02:20.682Z,43.15
2018-08-24T23:05:18.767Z,43.15
2018-08-24T23:08:17.691Z,43.11
2018-08-24T23:11:15.756Z,43.26
2018-08-24T23:14:14.927Z,43.72
2018-08-24T23:17:14.169Z,43.46
2018-08-24T23:20:13.272Z,43.11
2018-08-24T23:23:11.451Z,43.58
2018-08-24T23:26:09.844Z,43.62
2018-08-24T23:29:09.323Z,43.60
2018-08-24T23:32:07.932Z,43.14
2018-08-24T23:35:06.104Z,43.69
2018-08-24T23:38:04.387Z,43.67
2018-08-24T23:41:02.390Z,43.15
2018-08-24T23:44:02.136Z,43.59
2018-08-24T23:47:00.822Z,43.56
2018-08-24T23:49:59.369Z,43.42
2018-08-24T23:52:57.287Z,43.35
2018-08-24T23:55:55.238Z,43.53
2018-08-24T23:58:53.246Z,43.53
